Terminal Aerodrome Forecast
Issued by NWS

Home | Current Version | Previous Version | Text Only | Print | Product List | Glossary On
Versions: 1 2 3 4 5 6 7 8 9 10 11 12 13 14 15 16
000
FTUS43 KOAX 271100 CCA
TAFBFF
TAF COR
KBFF 271152Z 2712/2812 VRB04KT P6SM SCT011
     FM271600 11007KT P6SM -SHRA SCT012 OVC020
     FM280400 35005KT P6SM VCSH BKN020 OVC050=

USA.gov is the U.S. government's official web portal to all federal, state and local government web resources and services.